sensor_id;sensor_type;location;lat;lon;timestamp;pressure;altitude;pressure_sealevel;temperature
60731;BMP280;46580;52.114;11.674;2023-09-19T00:00:57;-19791.34;;;20.04
60731;BMP280;46580;52.114;11.674;2023-09-19T00:03:23;-19785.81;;;19.85
60731;BMP280;46580;52.114;11.674;2023-09-19T00:05:50;-19783.13;;;19.75
60731;BMP280;46580;52.114;11.674;2023-09-19T00:08:15;-19779.72;;;19.64
60731;BMP280;46580;52.114;11.674;2023-09-19T00:10:41;-19778.28;;;19.59
60731;BMP280;46580;52.114;11.674;2023-09-19T00:13:07;-19776.72;;;19.54
60731;BMP280;46580;52.114;11.674;2023-09-19T00:15:47;-19774.88;;;19.47
60731;BMP280;46580;52.114;11.674;2023-09-19T00:18:18;-19772.75;;;19.40
60731;BMP280;46580;52.114;11.674;2023-09-19T00:20:45;-19770.91;;;19.34
60731;BMP280;46580;52.114;11.674;2023-09-19T00:23:17;-19768.03;;;19.24
60731;BMP280;46580;52.114;11.674;2023-09-19T00:25:42;-19765.78;;;19.16
60731;BMP280;46580;52.114;11.674;2023-09-19T00:28:08;-19763.50;;;19.08
60731;BMP280;46580;52.114;11.674;2023-09-19T00:30:34;-19762.06;;;19.03
60731;BMP280;46580;52.114;11.674;2023-09-19T00:32:59;-19760.09;;;18.97
60731;BMP280;46580;52.114;11.674;2023-09-19T00:35:26;-19758.66;;;18.92
60731;BMP280;46580;52.114;11.674;2023-09-19T00:37:52;-19759.50;;;18.95
60731;BMP280;46580;52.114;11.674;2023-09-19T00:40:18;-19758.09;;;18.90
60731;BMP280;46580;52.114;11.674;2023-09-19T00:42:48;-19757.66;;;18.88
60731;BMP280;46580;52.114;11.674;2023-09-19T00:45:17;-19755.09;;;18.80
60731;BMP280;46580;52.114;11.674;2023-09-19T00:47:50;-19755.25;;;18.80
60731;BMP280;46580;52.114;11.674;2023-09-19T00:50:17;-19755.97;;;18.82
60731;BMP280;46580;52.114;11.674;2023-09-19T00:52:44;-19755.81;;;18.82
60731;BMP280;46580;52.114;11.674;2023-09-19T00:55:11;-19756.38;;;18.84
60731;BMP280;46580;52.114;11.674;2023-09-19T00:57:39;-19755.81;;;18.82
60731;BMP280;46580;52.114;11.674;2023-09-19T01:00:06;-19755.25;;;18.80
60731;BMP280;46580;52.114;11.674;2023-09-19T01:02:33;-19754.41;;;18.77
60731;BMP280;46580;52.114;11.674;2023-09-19T01:04:59;-19754.25;;;18.77
60731;BMP280;46580;52.114;11.674;2023-09-19T01:07:30;-19752.69;;;18.71
60731;BMP280;46580;52.114;11.674;2023-09-19T01:10:01;-19751.13;;;18.66
60731;BMP280;46580;52.114;11.674;2023-09-19T01:15:17;-19751.41;;;18.67
60731;BMP280;46580;52.114;11.674;2023-09-19T01:17:50;-19751.25;;;18.66
60731;BMP280;46580;52.114;11.674;2023-09-19T01:23:17;-19748.13;;;18.56
60731;BMP280;46580;52.114;11.674;2023-09-19T01:28:53;-19747.28;;;18.53
60731;BMP280;46580;52.114;11.674;2023-09-19T01:31:21;-19748.28;;;18.56
60731;BMP280;46580;52.114;11.674;2023-09-19T01:33:58;-19749.28;;;18.60
60731;BMP280;46580;52.114;11.674;2023-09-19T01:36:32;-19745.72;;;18.47
60731;BMP280;46580;52.114;11.674;2023-09-19T01:39:02;-19743.88;;;18.41
60731;BMP280;46580;52.114;11.674;2023-09-19T01:41:51;-19742.59;;;18.37
60731;BMP280;46580;52.114;11.674;2023-09-19T01:44:26;-19741.88;;;18.34
60731;BMP280;46580;52.114;11.674;2023-09-19T01:46:56;-19741.03;;;18.31
60731;BMP280;46580;52.114;11.674;2023-09-19T01:49:38;-19742.00;;;18.35
60731;BMP280;46580;52.114;11.674;2023-09-19T01:52:12;-19741.59;;;18.33
60731;BMP280;46580;52.114;11.674;2023-09-19T01:54:51;-19739.88;;;18.27
60731;BMP280;46580;52.114;11.674;2023-09-19T01:57:22;-19739.59;;;18.26
60731;BMP280;46580;52.114;11.674;2023-09-19T02:00:02;-19739.88;;;18.27
60731;BMP280;46580;52.114;11.674;2023-09-19T02:02:34;-19739.88;;;18.27
60731;BMP280;46580;52.114;11.674;2023-09-19T02:04:59;-19738.03;;;18.21
60731;BMP280;46580;52.114;11.674;2023-09-19T02:07:25;-19738.75;;;18.24
60731;BMP280;46580;52.114;11.674;2023-09-19T02:09:51;-19739.47;;;18.26
60731;BMP280;46580;52.114;11.674;2023-09-19T02:12:17;-19738.75;;;18.24
60731;BMP280;46580;52.114;11.674;2023-09-19T02:14:42;-19738.75;;;18.24
60731;BMP280;46580;52.114;11.674;2023-09-19T02:17:08;-19740.03;;;18.28
60731;BMP280;46580;52.114;11.674;2023-09-19T02:19:36;-19740.44;;;18.29
60731;BMP280;46580;52.114;11.674;2023-09-19T02:22:04;-19741.31;;;18.32
60731;BMP280;46580;52.114;11.674;2023-09-19T02:24:33;-19739.47;;;18.26
60731;BMP280;46580;52.114;11.674;2023-09-19T02:26:59;-19738.16;;;18.22
60731;BMP280;46580;52.114;11.674;2023-09-19T02:29:30;-19737.88;;;18.21
60731;BMP280;46580;52.114;11.674;2023-09-19T02:31:55;-19736.59;;;18.16
60731;BMP280;46580;52.114;11.674;2023-09-19T02:34:27;-19737.75;;;18.20
60731;BMP280;46580;52.114;11.674;2023-09-19T02:36:52;-19737.19;;;18.18
60731;BMP280;46580;52.114;11.674;2023-09-19T02:39:24;-19736.47;;;18.16
60731;BMP280;46580;52.114;11.674;2023-09-19T02:41:53;-19735.03;;;18.11
60731;BMP280;46580;52.114;11.674;2023-09-19T02:44:19;-19733.63;;;18.06
60731;BMP280;46580;52.114;11.674;2023-09-19T02:46:45;-19733.06;;;18.04
60731;BMP280;46580;52.114;11.674;2023-09-19T02:49:10;-19732.78;;;18.03
60731;BMP280;46580;52.114;11.674;2023-09-19T02:51:36;-19732.19;;;18.01
60731;BMP280;46580;52.114;11.674;2023-09-19T02:54:01;-19731.50;;;17.99
60731;BMP280;46580;52.114;11.674;2023-09-19T02:56:28;-19731.78;;;18.00
60731;BMP280;46580;52.114;11.674;2023-09-19T02:58:55;-19730.63;;;17.96
60731;BMP280;46580;52.114;11.674;2023-09-19T03:01:20;-19728.78;;;17.89
60731;BMP280;46580;52.114;11.674;2023-09-19T03:03:46;-19729.34;;;17.91
60731;BMP280;46580;52.114;11.674;2023-09-19T03:06:11;-19728.63;;;17.89
60731;BMP280;46580;52.114;11.674;2023-09-19T03:08:38;-19728.50;;;17.88
60731;BMP280;46580;52.114;11.674;2023-09-19T03:11:05;-19727.94;;;17.87
60731;BMP280;46580;52.114;11.674;2023-09-19T03:13:32;-19726.63;;;17.82
60731;BMP280;46580;52.114;11.674;2023-09-19T03:15:57;-19724.78;;;17.76
60731;BMP280;46580;52.114;11.674;2023-09-19T03:18:26;-19722.50;;;17.68
60731;BMP280;46580;52.114;11.674;2023-09-19T03:20:53;-19722.50;;;17.68
60731;BMP280;46580;52.114;11.674;2023-09-19T03:23:20;-19721.66;;;17.65
60731;BMP280;46580;52.114;11.674;2023-09-19T03:25:45;-19721.09;;;17.63
60731;BMP280;46580;52.114;11.674;2023-09-19T03:28:11;-19720.53;;;17.61
60731;BMP280;46580;52.114;11.674;2023-09-19T03:30:36;-19720.81;;;17.62
60731;BMP280;46580;52.114;11.674;2023-09-19T03:33:02;-19721.66;;;17.65
60731;BMP280;46580;52.114;11.674;2023-09-19T03:35:27;-19720.66;;;17.62
60731;BMP280;46580;52.114;11.674;2023-09-19T03:37:53;-19720.53;;;17.61
60731;BMP280;46580;52.114;11.674;2023-09-19T03:40:18;-19718.97;;;17.56
60731;BMP280;46580;52.114;11.674;2023-09-19T03:42:45;-19718.38;;;17.54
60731;BMP280;46580;52.114;11.674;2023-09-19T03:45:11;-19717.25;;;17.50
60731;BMP280;46580;52.114;11.674;2023-09-19T03:47:38;-19715.69;;;17.45
60731;BMP280;46580;52.114;11.674;2023-09-19T03:50:05;-19713.69;;;17.38
60731;BMP280;46580;52.114;11.674;2023-09-19T03:52:31;-19713.84;;;17.38
60731;BMP280;46580;52.114;11.674;2023-09-19T03:54:56;-19713.41;;;17.37
60731;BMP280;46580;52.114;11.674;2023-09-19T03:57:22;-19713.53;;;17.37
60731;BMP280;46580;52.114;11.674;2023-09-19T03:59:47;-19711.97;;;17.32
60731;BMP280;46580;52.114;11.674;2023-09-19T04:02:13;-19711.97;;;17.32
60731;BMP280;46580;52.114;11.674;2023-09-19T04:04:51;-19709.69;;;17.24
60731;BMP280;46580;52.114;11.674;2023-09-19T04:07:17;-19709.41;;;17.23
60731;BMP280;46580;52.114;11.674;2023-09-19T04:09:44;-19708.56;;;17.20
60731;BMP280;46580;52.114;11.674;2023-09-19T04:12:10;-19710.13;;;17.26
60731;BMP280;46580;52.114;11.674;2023-09-19T04:14:35;-19707.28;;;17.16
60731;BMP280;46580;52.114;11.674;2023-09-19T04:17:03;-19707.00;;;17.15
60731;BMP280;46580;52.114;11.674;2023-09-19T04:19:30;-19707.72;;;17.17
60731;BMP280;46580;52.114;11.674;2023-09-19T04:21:55;-19708.28;;;17.19
60731;BMP280;46580;52.114;11.674;2023-09-19T04:24:21;-19708.28;;;17.19
60731;BMP280;46580;52.114;11.674;2023-09-19T04:26:46;-19707.72;;;17.17
60731;BMP280;46580;52.114;11.674;2023-09-19T04:29:12;-19707.56;;;17.17
60731;BMP280;46580;52.114;11.674;2023-09-19T04:31:43;-19707.44;;;17.16
60731;BMP280;46580;52.114;11.674;2023-09-19T04:34:13;-19706.44;;;17.13
60731;BMP280;46580;52.114;11.674;2023-09-19T04:36:45;-19705.56;;;17.10
60731;BMP280;46580;52.114;11.674;2023-09-19T04:39:10;-19704.44;;;17.06
60731;BMP280;46580;52.114;11.674;2023-09-19T04:41:37;-19704.84;;;17.08
60731;BMP280;46580;52.114;11.674;2023-09-19T04:44:06;-19703.88;;;17.04
60731;BMP280;46580;52.114;11.674;2023-09-19T04:46:33;-19704.44;;;17.06
60731;BMP280;46580;52.114;11.674;2023-09-19T04:48:58;-19704.00;;;17.05
60731;BMP280;46580;52.114;11.674;2023-09-19T04:51:24;-19703.28;;;17.02
60731;BMP280;46580;52.114;11.674;2023-09-19T04:53:50;-19702.88;;;17.01
60731;BMP280;46580;52.114;11.674;2023-09-19T04:56:16;-19702.59;;;17.00
60731;BMP280;46580;52.114;11.674;2023-09-19T04:58:41;-19702.59;;;17.00
60731;BMP280;46580;52.114;11.674;2023-09-19T05:01:07;-19704.00;;;17.05
60731;BMP280;46580;52.114;11.674;2023-09-19T05:03:36;-19702.59;;;17.00
60731;BMP280;46580;52.114;11.674;2023-09-19T05:06:02;-19701.16;;;16.95
60731;BMP280;46580;52.114;11.674;2023-09-19T05:08:28;-19701.44;;;16.96
60731;BMP280;46580;52.114;11.674;2023-09-19T05:10:53;-19702.00;;;16.98
60731;BMP280;46580;52.114;11.674;2023-09-19T05:13:21;-19700.88;;;16.94
60731;BMP280;46580;52.114;11.674;2023-09-19T05:15:48;-19700.59;;;16.93
60731;BMP280;46580;52.114;11.674;2023-09-19T05:18:15;-19699.72;;;16.90
60731;BMP280;46580;52.114;11.674;2023-09-19T05:20:40;-19700.59;;;16.93
60731;BMP280;46580;52.114;11.674;2023-09-19T05:23:06;-19701.16;;;16.95
60731;BMP280;46580;52.114;11.674;2023-09-19T05:25:38;-19701.59;;;16.96
60731;BMP280;46580;52.114;11.674;2023-09-19T05:28:09;-19703.28;;;17.02
60731;BMP280;46580;52.114;11.674;2023-09-19T05:30:36;-19700.88;;;16.94
60731;BMP280;46580;52.114;11.674;2023-09-19T05:33:05;-19701.31;;;16.95
60731;BMP280;46580;52.114;11.674;2023-09-19T05:35:31;-19703.72;;;17.04
60731;BMP280;46580;52.114;11.674;2023-09-19T05:37:57;-19703.44;;;17.03
60731;BMP280;46580;52.114;11.674;2023-09-19T05:40:24;-19704.00;;;17.05
60731;BMP280;46580;52.114;11.674;2023-09-19T05:42:50;-19705.16;;;17.09
60731;BMP280;46580;52.114;11.674;2023-09-19T05:45:21;-19707.00;;;17.15
60731;BMP280;46580;52.114;11.674;2023-09-19T05:47:51;-19707.44;;;17.16
60731;BMP280;46580;52.114;11.674;2023-09-19T05:50:21;-19706.72;;;17.14
60731;BMP280;46580;52.114;11.674;2023-09-19T05:52:53;-19707.56;;;17.17
60731;BMP280;46580;52.114;11.674;2023-09-19T05:55:21;-19705.44;;;17.10
60731;BMP280;46580;52.114;11.674;2023-09-19T05:57:53;-19705.28;;;17.09
60731;BMP280;46580;52.114;11.674;2023-09-19T06:00:20;-19705.00;;;17.08
60731;BMP280;46580;52.114;11.674;2023-09-19T06:02:51;-19703.72;;;17.04
60731;BMP280;46580;52.114;11.674;2023-09-19T06:05:17;-19704.44;;;17.06
60731;BMP280;46580;52.114;11.674;2023-09-19T06:07:42;-19704.72;;;17.07
60731;BMP280;46580;52.114;11.674;2023-09-19T06:10:08;-19704.44;;;17.06
60731;BMP280;46580;52.114;11.674;2023-09-19T06:12:39;-19703.72;;;17.04
60731;BMP280;46580;52.114;11.674;2023-09-19T06:15:05;-19703.16;;;17.02
60731;BMP280;46580;52.114;11.674;2023-09-19T06:17:31;-19703.72;;;17.04
60731;BMP280;46580;52.114;11.674;2023-09-19T06:19:56;-19703.72;;;17.04
60731;BMP280;46580;52.114;11.674;2023-09-19T06:22:22;-19704.84;;;17.08
60731;BMP280;46580;52.114;11.674;2023-09-19T06:24:49;-19704.00;;;17.05
60731;BMP280;46580;52.114;11.674;2023-09-19T06:27:21;-19702.59;;;17.00
60731;BMP280;46580;52.114;11.674;2023-09-19T06:29:47;-19702.00;;;16.98
60731;BMP280;46580;52.114;11.674;2023-09-19T06:32:12;-19702.59;;;17.00
60731;BMP280;46580;52.114;11.674;2023-09-19T06:34:38;-19703.16;;;17.02
60731;BMP280;46580;52.114;11.674;2023-09-19T06:37:04;-19702.00;;;16.98
60731;BMP280;46580;52.114;11.674;2023-09-19T06:39:31;-19701.88;;;16.97
60731;BMP280;46580;52.114;11.674;2023-09-19T06:41:57;-19701.59;;;16.96
60731;BMP280;46580;52.114;11.674;2023-09-19T06:44:23;-19701.59;;;16.96
60731;BMP280;46580;52.114;11.674;2023-09-19T06:46:50;-19702.00;;;16.98
60731;BMP280;46580;52.114;11.674;2023-09-19T06:49:17;-19700.72;;;16.93
60731;BMP280;46580;52.114;11.674;2023-09-19T06:51:42;-19700.72;;;16.93
60731;BMP280;46580;52.114;11.674;2023-09-19T06:54:09;-19702.16;;;16.98
60731;BMP280;46580;52.114;11.674;2023-09-19T06:56:35;-19701.44;;;16.96
60731;BMP280;46580;52.114;11.674;2023-09-19T06:59:00;-19702.00;;;16.98
60731;BMP280;46580;52.114;11.674;2023-09-19T07:01:27;-19703.44;;;17.03
60731;BMP280;46580;52.114;11.674;2023-09-19T07:03:53;-19703.44;;;17.03
60731;BMP280;46580;52.114;11.674;2023-09-19T07:06:19;-19703.72;;;17.04
60731;BMP280;46580;52.114;11.674;2023-09-19T07:08:45;-19701.72;;;16.97
60731;BMP280;46580;52.114;11.674;2023-09-19T07:11:10;-19704.28;;;17.06
60731;BMP280;46580;52.114;11.674;2023-09-19T07:13:38;-19705.44;;;17.10
60731;BMP280;46580;52.114;11.674;2023-09-19T07:16:04;-19705.00;;;17.08
60731;BMP280;46580;52.114;11.674;2023-09-19T07:18:29;-19704.28;;;17.06
60731;BMP280;46580;52.114;11.674;2023-09-19T07:20:58;-19702.72;;;17.00
60731;BMP280;46580;52.114;11.674;2023-09-19T07:23:32;-19700.59;;;16.93
60731;BMP280;46580;52.114;11.674;2023-09-19T07:26:03;-19699.00;;;16.88
60731;BMP280;46580;52.114;11.674;2023-09-19T07:28:30;-19698.03;;;16.84
60731;BMP280;46580;52.114;11.674;2023-09-19T07:30:56;-19699.88;;;16.91
60731;BMP280;46580;52.114;11.674;2023-09-19T07:33:21;-19705.16;;;17.09
60731;BMP280;46580;52.114;11.674;2023-09-19T07:35:47;-19711.41;;;17.30
60731;BMP280;46580;52.114;11.674;2023-09-19T07:38:13;-19713.41;;;17.37
60731;BMP280;46580;52.114;11.674;2023-09-19T07:40:39;-19716.81;;;17.49
60731;BMP280;46580;52.114;11.674;2023-09-19T07:43:05;-19721.66;;;17.65
60731;BMP280;46580;52.114;11.674;2023-09-19T07:45:32;-19726.22;;;17.81
60731;BMP280;46580;52.114;11.674;2023-09-19T07:47:57;-19726.78;;;17.83
60731;BMP280;46580;52.114;11.674;2023-09-19T07:50:23;-19726.78;;;17.83
60731;BMP280;46580;52.114;11.674;2023-09-19T07:52:49;-19726.06;;;17.80
60731;BMP280;46580;52.114;11.674;2023-09-19T07:55:18;-19727.94;;;17.87
60731;BMP280;46580;52.114;11.674;2023-09-19T07:57:45;-19727.94;;;17.87
60731;BMP280;46580;52.114;11.674;2023-09-19T08:00:12;-19729.34;;;17.91
60731;BMP280;46580;52.114;11.674;2023-09-19T08:02:44;-19731.50;;;17.99
60731;BMP280;46580;52.114;11.674;2023-09-19T08:05:11;-19734.75;;;18.10
60731;BMP280;46580;52.114;11.674;2023-09-19T08:07:38;-19739.03;;;18.24
60731;BMP280;46580;52.114;11.674;2023-09-19T08:10:04;-19740.31;;;18.29
60731;BMP280;46580;52.114;11.674;2023-09-19T08:12:36;-19737.31;;;18.19
60731;BMP280;46580;52.114;11.674;2023-09-19T08:15:12;-19739.31;;;18.25
60731;BMP280;46580;52.114;11.674;2023-09-19T08:17:38;-19743.16;;;18.39
60731;BMP280;46580;52.114;11.674;2023-09-19T08:20:04;-19746.84;;;18.51
60731;BMP280;46580;52.114;11.674;2023-09-19T08:22:31;-19746.44;;;18.50
60731;BMP280;46580;52.114;11.674;2023-09-19T08:24:57;-19746.72;;;18.51
60731;BMP280;46580;52.114;11.674;2023-09-19T08:27:23;-19750.69;;;18.64
60731;BMP280;46580;52.114;11.674;2023-09-19T08:29:52;-19754.41;;;18.77
60731;BMP280;46580;52.114;11.674;2023-09-19T08:32:17;-19749.97;;;18.62
60731;BMP280;46580;52.114;11.674;2023-09-19T08:34:45;-19749.56;;;18.61
60731;BMP280;46580;52.114;11.674;2023-09-19T08:37:10;-19755.53;;;18.81
60731;BMP280;46580;52.114;11.674;2023-09-19T08:39:36;-19754.13;;;18.76
60731;BMP280;46580;52.114;11.674;2023-09-19T08:42:02;-19755.53;;;18.81
60731;BMP280;46580;52.114;11.674;2023-09-19T08:44:28;-19756.66;;;18.85
60731;BMP280;46580;52.114;11.674;2023-09-19T08:47:10;-19759.50;;;18.95
60731;BMP280;46580;52.114;11.674;2023-09-19T08:49:53;-19763.78;;;19.09
60731;BMP280;46580;52.114;11.674;2023-09-19T08:52:23;-19760.09;;;18.97
60731;BMP280;46580;52.114;11.674;2023-09-19T08:54:52;-19754.41;;;18.77
60731;BMP280;46580;52.114;11.674;2023-09-19T08:57:19;-19755.69;;;18.81
60731;BMP280;46580;52.114;11.674;2023-09-19T08:59:48;-19757.38;;;18.87
60731;BMP280;46580;52.114;11.674;2023-09-19T09:02:15;-19758.81;;;18.92
60731;BMP280;46580;52.114;11.674;2023-09-19T09:04:41;-19762.50;;;19.05
60731;BMP280;46580;52.114;11.674;2023-09-19T09:07:11;-19765.78;;;19.16
60731;BMP280;46580;52.114;11.674;2023-09-19T09:09:38;-19759.94;;;18.96
60731;BMP280;46580;52.114;11.674;2023-09-19T09:12:09;-19759.38;;;18.94
60731;BMP280;46580;52.114;11.674;2023-09-19T09:14:35;-19759.22;;;18.94
60731;BMP280;46580;52.114;11.674;2023-09-19T09:17:01;-19763.06;;;19.07
60731;BMP280;46580;52.114;11.674;2023-09-19T09:19:27;-19758.53;;;18.91
60731;BMP280;46580;52.114;11.674;2023-09-19T09:21:53;-19756.81;;;18.85
60731;BMP280;46580;52.114;11.674;2023-09-19T09:24:30;-19759.94;;;18.96
60731;BMP280;46580;52.114;11.674;2023-09-19T09:26:59;-19761.78;;;19.02
60731;BMP280;46580;52.114;11.674;2023-09-19T09:34:57;-19763.50;;;19.08
60731;BMP280;46580;52.114;11.674;2023-09-19T09:37:23;-19769.19;;;19.28
60731;BMP280;46580;52.114;11.674;2023-09-19T09:39:51;-19771.47;;;19.36
60731;BMP280;46580;52.114;11.674;2023-09-19T09:42:37;-19770.75;;;19.33
60731;BMP280;46580;52.114;11.674;2023-09-19T09:45:25;-19769.19;;;19.28
60731;BMP280;46580;52.114;11.674;2023-09-19T09:48:02;-19771.16;;;19.35
60731;BMP280;46580;52.114;11.674;2023-09-19T09:50:46;-19770.91;;;19.34
60731;BMP280;46580;52.114;11.674;2023-09-19T09:58:25;-19776.56;;;19.53
60731;BMP280;46580;52.114;11.674;2023-09-19T10:00:58;-19775.72;;;19.50
60731;BMP280;46580;52.114;11.674;2023-09-19T10:03:36;-19777.72;;;19.57
60731;BMP280;46580;52.114;11.674;2023-09-19T10:06:13;-19777.28;;;19.55
60731;BMP280;46580;52.114;11.674;2023-09-19T10:09:09;-19780.00;;;19.65
60731;BMP280;46580;52.114;11.674;2023-09-19T10:12:03;-19772.88;;;19.40
60731;BMP280;46580;52.114;11.674;2023-09-19T10:14:30;-19774.03;;;19.44
60731;BMP280;46580;52.114;11.674;2023-09-19T10:17:00;-19774.31;;;19.45
60731;BMP280;46580;52.114;11.674;2023-09-19T10:19:32;-19774.88;;;19.47
60731;BMP280;46580;52.114;11.674;2023-09-19T10:21:59;-19774.59;;;19.46
60731;BMP280;46580;52.114;11.674;2023-09-19T10:24:27;-19779.72;;;19.64
60731;BMP280;46580;52.114;11.674;2023-09-19T10:26:55;-19783.97;;;19.78
60731;BMP280;46580;52.114;11.674;2023-09-19T10:29:21;-19787.25;;;19.90
60731;BMP280;46580;52.114;11.674;2023-09-19T10:31:52;-19789.09;;;19.96
60731;BMP280;46580;52.114;11.674;2023-09-19T10:34:19;-19785.69;;;19.84
60731;BMP280;46580;52.114;11.674;2023-09-19T10:36:46;-19787.94;;;19.92
60731;BMP280;46580;52.114;11.674;2023-09-19T10:39:16;-19785.97;;;19.85
60731;BMP280;46580;52.114;11.674;2023-09-19T10:41:49;-19785.69;;;19.84
60731;BMP280;46580;52.114;11.674;2023-09-19T10:44:28;-19781.13;;;19.69
60731;BMP280;46580;52.114;11.674;2023-09-19T10:46:54;-19784.13;;;19.79
60731;BMP280;46580;52.114;11.674;2023-09-19T10:49:21;-19788.94;;;19.95
60731;BMP280;46580;52.114;11.674;2023-09-19T10:51:47;-19788.81;;;19.95
60731;BMP280;46580;52.114;11.674;2023-09-19T10:54:17;-19793.34;;;20.11
60731;BMP280;46580;52.114;11.674;2023-09-19T10:56:48;-19793.91;;;20.12
60731;BMP280;46580;52.114;11.674;2023-09-19T10:59:16;-19788.53;;;19.94
60731;BMP280;46580;52.114;11.674;2023-09-19T11:01:47;-19795.06;;;20.16
60731;BMP280;46580;52.114;11.674;2023-09-19T11:04:31;-19801.16;;;20.37
60731;BMP280;46580;52.114;11.674;2023-09-19T11:07:07;-19801.03;;;20.37
60731;BMP280;46580;52.114;11.674;2023-09-19T11:10:02;-19801.44;;;20.38
60731;BMP280;46580;52.114;11.674;2023-09-19T11:15:02;-19804.44;;;20.48
60731;BMP280;46580;52.114;11.674;2023-09-19T11:17:39;-19802.88;;;20.43
60731;BMP280;46580;52.114;11.674;2023-09-19T11:30:34;-19803.28;;;20.45
60731;BMP280;46580;52.114;11.674;2023-09-19T11:33:26;-19799.31;;;20.31
60731;BMP280;46580;52.114;11.674;2023-09-19T11:36:10;-19801.59;;;20.39
60731;BMP280;46580;52.114;11.674;2023-09-19T11:43:49;-19796.63;;;20.22
60731;BMP280;46580;52.114;11.674;2023-09-19T11:46:16;-19802.03;;;20.40
60731;BMP280;46580;52.114;11.674;2023-09-19T11:48:47;-19805.28;;;20.51
60731;BMP280;46580;52.114;11.674;2023-09-19T11:51:19;-19807.00;;;20.57
60731;BMP280;46580;52.114;11.674;2023-09-19T11:53:50;-19807.56;;;20.59
60731;BMP280;46580;52.114;11.674;2023-09-19T11:56:20;-19809.25;;;20.65
60731;BMP280;46580;52.114;11.674;2023-09-19T11:58:49;-19811.25;;;20.72
60731;BMP280;46580;52.114;11.674;2023-09-19T12:01:24;-19814.66;;;20.84
60731;BMP280;46580;52.114;11.674;2023-09-19T12:03:55;-19814.22;;;20.82
60731;BMP280;46580;52.114;11.674;2023-09-19T12:06:22;-19814.50;;;20.83
60731;BMP280;46580;52.114;11.674;2023-09-19T12:08:48;-19810.81;;;20.70
60731;BMP280;46580;52.114;11.674;2023-09-19T12:11:16;-19809.84;;;20.67
60731;BMP280;46580;52.114;11.674;2023-09-19T12:13:47;-19811.81;;;20.74
60731;BMP280;46580;52.114;11.674;2023-09-19T12:16:17;-19816.22;;;20.89
60731;BMP280;46580;52.114;11.674;2023-09-19T12:18:47;-19817.63;;;20.94
60731;BMP280;46580;52.114;11.674;2023-09-19T12:24:05;-19816.34;;;20.89
60731;BMP280;46580;52.114;11.674;2023-09-19T12:26:41;-19815.78;;;20.87
60731;BMP280;46580;52.114;11.674;2023-09-19T12:29:12;-19816.34;;;20.89
60731;BMP280;46580;52.114;11.674;2023-09-19T12:31:54;-19816.34;;;20.89
60731;BMP280;46580;52.114;11.674;2023-09-19T12:37:07;-19815.22;;;20.86
60731;BMP280;46580;52.114;11.674;2023-09-19T12:39:46;-19815.66;;;20.87
60731;BMP280;46580;52.114;11.674;2023-09-19T12:42:17;-19810.97;;;20.71
60731;BMP280;46580;52.114;11.674;2023-09-19T12:44:48;-19809.13;;;20.65
60731;BMP280;46580;52.114;11.674;2023-09-19T12:47:17;-19810.25;;;20.68
60731;BMP280;46580;52.114;11.674;2023-09-19T12:50:08;-19810.13;;;20.68
60731;BMP280;46580;52.114;11.674;2023-09-19T12:52:39;-19811.25;;;20.72
60731;BMP280;46580;52.114;11.674;2023-09-19T12:55:05;-19814.38;;;20.83
60731;BMP280;46580;52.114;11.674;2023-09-19T12:57:33;-19817.78;;;20.94
60731;BMP280;46580;52.114;11.674;2023-09-19T13:00:03;-19814.09;;;20.82
60731;BMP280;46580;52.114;11.674;2023-09-19T13:02:36;-19819.50;;;21.00
60731;BMP280;46580;52.114;11.674;2023-09-19T13:05:03;-19819.78;;;21.01
60731;BMP280;46580;52.114;11.674;2023-09-19T13:07:42;-19825.16;;;21.20
60731;BMP280;46580;52.114;11.674;2023-09-19T13:10:12;-19821.19;;;21.06
60731;BMP280;46580;52.114;11.674;2023-09-19T13:12:42;-19820.19;;;21.03
60731;BMP280;46580;52.114;11.674;2023-09-19T13:15:13;-19819.34;;;21.00
60731;BMP280;46580;52.114;11.674;2023-09-19T13:17:46;-19815.78;;;20.87
60731;BMP280;46580;52.114;11.674;2023-09-19T13:20:24;-19813.81;;;20.81
60731;BMP280;46580;52.114;11.674;2023-09-19T13:22:53;-19810.53;;;20.69
60731;BMP280;46580;52.114;11.674;2023-09-19T13:25:21;-19811.25;;;20.72
60731;BMP280;46580;52.114;11.674;2023-09-19T13:30:14;-19814.50;;;20.83
60731;BMP280;46580;52.114;11.674;2023-09-19T13:32:39;-19816.94;;;20.91
60731;BMP280;46580;52.114;11.674;2023-09-19T13:35:07;-19825.16;;;21.20
60731;BMP280;46580;52.114;11.674;2023-09-19T13:37:35;-19825.75;;;21.22
60731;BMP280;46580;52.114;11.674;2023-09-19T13:40:05;-19816.50;;;20.90
60731;BMP280;46580;52.114;11.674;2023-09-19T13:42:33;-19820.19;;;21.03
60731;BMP280;46580;52.114;11.674;2023-09-19T13:44:58;-19818.91;;;20.98
60731;BMP280;46580;52.114;11.674;2023-09-19T13:47:24;-19820.47;;;21.04
60731;BMP280;46580;52.114;11.674;2023-09-19T13:49:52;-19820.06;;;21.02
60731;BMP280;46580;52.114;11.674;2023-09-19T13:52:21;-19820.75;;;21.04
60731;BMP280;46580;52.114;11.674;2023-09-19T13:54:49;-19820.63;;;21.04
60731;BMP280;46580;52.114;11.674;2023-09-19T13:57:15;-19819.91;;;21.02
60731;BMP280;46580;52.114;11.674;2023-09-19T13:59:41;-19823.59;;;21.14
60731;BMP280;46580;52.114;11.674;2023-09-19T14:02:07;-19822.59;;;21.11
60731;BMP280;46580;52.114;11.674;2023-09-19T14:04:32;-19821.34;;;21.06
60731;BMP280;46580;52.114;11.674;2023-09-19T14:07:00;-19824.75;;;21.18
60731;BMP280;46580;52.114;11.674;2023-09-19T14:09:26;-19826.72;;;21.25
60731;BMP280;46580;52.114;11.674;2023-09-19T14:11:51;-19824.31;;;21.17
60731;BMP280;46580;52.114;11.674;2023-09-19T14:14:19;-19816.94;;;20.91
60731;BMP280;46580;52.114;11.674;2023-09-19T14:16:46;-19814.66;;;20.84
60731;BMP280;46580;52.114;11.674;2023-09-19T14:19:12;-19814.38;;;20.83
60731;BMP280;46580;52.114;11.674;2023-09-19T14:21:39;-19814.66;;;20.84
60731;BMP280;46580;52.114;11.674;2023-09-19T14:24:04;-19816.66;;;20.90
60731;BMP280;46580;52.114;11.674;2023-09-19T14:26:35;-19819.50;;;21.00
60731;BMP280;46580;52.114;11.674;2023-09-19T14:29:00;-19816.66;;;20.90
60731;BMP280;46580;52.114;11.674;2023-09-19T14:31:26;-19819.19;;;20.99
60731;BMP280;46580;52.114;11.674;2023-09-19T14:33:57;-19818.50;;;20.97
60731;BMP280;46580;52.114;11.674;2023-09-19T14:36:24;-19819.06;;;20.99
60731;BMP280;46580;52.114;11.674;2023-09-19T14:38:52;-19816.34;;;20.89